createdAt,value
2018-02-01T00:00:45.193Z,0
2018-02-01T00:01:44.764Z,0
2018-02-01T00:02:45.238Z,0
2018-02-01T00:03:45.508Z,0
2018-02-01T00:04:45.771Z,0
2018-02-01T00:05:45.290Z,0
2018-02-01T00:06:45.305Z,0
2018-02-01T00:07:45.326Z,0
2018-02-01T00:08:44.837Z,0
2018-02-01T00:09:45.610Z,0
2018-02-01T00:10:44.874Z,0
2018-02-01T00:11:45.142Z,0
2018-02-01T00:12:45.158Z,0
2018-02-01T00:13:45.175Z,0
2018-02-01T00:14:45.447Z,0
2018-02-01T00:15:45.489Z,0
2018-02-01T00:16:45.540Z,0
2018-02-01T00:17:45.506Z,0
2018-02-01T00:18:45.268Z,0
2018-02-01T00:19:46.050Z,0
2018-02-01T00:20:45.556Z,0
2018-02-01T00:21:45.923Z,0
2018-02-01T00:22:45.846Z,0
2018-02-01T00:23:45.609Z,0
2018-02-01T00:24:45.649Z,0
2018-02-01T00:25:45.652Z,0
2018-02-01T00:26:45.912Z,0
2018-02-01T00:27:45.682Z,0
2018-02-01T00:28:45.948Z,0
2018-02-01T00:29:45.462Z,0
2018-02-01T00:30:45.733Z,0
2018-02-01T00:31:45.806Z,0
2018-02-01T00:32:45.264Z,0
2018-02-01T00:33:45.792Z,0
2018-02-01T00:34:46.054Z,0
2018-02-01T00:35:45.823Z,0
2018-02-01T00:36:45.888Z,0
2018-02-01T00:37:46.105Z,0
2018-02-01T00:38:46.377Z,0
2018-02-01T00:39:45.629Z,0
2018-02-01T00:40:46.411Z,0
2018-02-01T00:41:46.232Z,0
2018-02-01T00:42:45.950Z,0
2018-02-01T00:43:46.207Z,0
2018-02-01T00:44:45.996Z,0
2018-02-01T00:45:46.497Z,0
2018-02-01T00:46:46.163Z,0
2018-02-01T00:47:46.527Z,0
2018-02-01T00:48:46.554Z,0
2018-02-01T00:49:46.315Z,0
2018-02-01T00:50:46.606Z,0
2018-02-01T00:51:45.846Z,0
2018-02-01T00:52:46.365Z,0
2018-02-01T00:53:46.632Z,0
2018-02-01T00:54:46.403Z,0
2018-02-01T00:55:45.920Z,0
2018-02-01T00:56:45.932Z,0
2018-02-01T00:57:46.458Z,0
2018-02-01T00:58:46.235Z,0
2018-02-01T00:59:46.494Z,0
2018-02-01T01:00:46.269Z,0
2018-02-01T01:01:46.329Z,0
2018-02-01T01:02:46.806Z,0
2018-02-01T01:03:46.334Z,0
2018-02-01T01:04:46.578Z,0
2018-02-01T01:05:46.344Z,0
2018-02-01T01:06:46.866Z,0
2018-02-01T01:07:46.630Z,0
2018-02-01T01:08:46.391Z,0
2018-02-01T01:09:46.662Z,0
2018-02-01T01:10:46.179Z,0
2018-02-01T01:11:46.202Z,0
2018-02-01T01:12:46.463Z,0
2018-02-01T01:13:46.482Z,0
2018-02-01T01:14:46.247Z,0
2018-02-01T01:15:46.016Z,0
2018-02-01T01:16:47.094Z,0
2018-02-01T01:17:46.569Z,0
2018-02-01T01:18:47.072Z,0
2018-02-01T01:19:46.580Z,0
2018-02-01T01:20:46.867Z,0
2018-02-01T01:21:46.879Z,0
2018-02-01T01:22:46.639Z,0
2018-02-01T01:23:46.908Z,0
2018-02-01T01:24:46.671Z,0
2018-02-01T01:25:46.439Z,0
2018-02-01T01:26:46.703Z,0
2018-02-01T01:27:46.974Z,0
2018-02-01T01:28:46.989Z,0
2018-02-01T01:29:46.768Z,0
2018-02-01T01:30:47.021Z,0
2018-02-01T01:31:46.845Z,0
2018-02-01T01:32:46.556Z,0
2018-02-01T01:33:46.573Z,0
2018-02-01T01:34:46.614Z,0
2018-02-01T01:35:46.862Z,0
2018-02-01T01:36:46.877Z,0
2018-02-01T01:37:46.894Z,0
2018-02-01T01:38:46.911Z,0
2018-02-01T01:39:47.188Z,0
2018-02-01T01:40:46.716Z,0
2018-02-01T01:41:46.971Z,0
2018-02-01T01:42:46.980Z,0
2018-02-01T01:43:47.006Z,0
2018-02-01T01:44:47.288Z,0
2018-02-01T01:45:47.034Z,0
2018-02-01T01:46:47.050Z,0
2018-02-01T01:47:47.061Z,0
2018-02-01T01:48:47.086Z,0
2018-02-01T01:49:46.897Z,0
2018-02-01T01:50:47.112Z,0
2018-02-01T01:51:47.134Z,0
2018-02-01T01:52:47.400Z,0
2018-02-01T01:53:46.916Z,0
2018-02-01T01:54:47.456Z,0
2018-02-01T01:55:46.950Z,0
2018-02-01T01:56:47.732Z,0
2018-02-01T01:57:47.485Z,0
2018-02-01T01:58:47.266Z,0
2018-02-01T01:59:47.016Z,0
2018-02-01T02:00:47.537Z,0
2018-02-01T02:01:47.558Z,0
2018-02-01T02:02:47.317Z,0
2018-02-01T02:03:47.335Z,0
2018-02-01T02:04:47.155Z,0
2018-02-01T02:05:47.630Z,0
2018-02-01T02:06:47.389Z,0
2018-02-01T02:07:47.152Z,0
2018-02-01T02:08:47.172Z,0
2018-02-01T02:09:46.940Z,0
2018-02-01T02:10:47.201Z,0
2018-02-01T02:11:47.219Z,0
2018-02-01T02:12:47.504Z,0
2018-02-01T02:13:48.017Z,0
2018-02-01T02:14:47.521Z,0
2018-02-01T02:15:47.794Z,0
2018-02-01T02:16:47.558Z,0
2018-02-01T02:17:47.326Z,0
2018-02-01T02:18:48.102Z,0
2018-02-01T02:19:47.359Z,0
2018-02-01T02:20:47.678Z,0
2018-02-01T02:21:47.648Z,0
2018-02-01T02:22:47.659Z,0
2018-02-01T02:23:47.679Z,0
2018-02-01T02:24:47.691Z,0
2018-02-01T02:25:47.474Z,0
2018-02-01T02:26:47.725Z,0
2018-02-01T02:27:48.253Z,0
2018-02-01T02:28:47.515Z,0
2018-02-01T02:29:47.781Z,0
2018-02-01T02:30:48.053Z,0
2018-02-01T02:31:48.318Z,0
2018-02-01T02:32:47.833Z,0
2018-02-01T02:33:48.095Z,0
2018-02-01T02:34:48.369Z,0
2018-02-01T02:35:47.676Z,0
2018-02-01T02:36:48.152Z,0
2018-02-01T02:37:47.661Z,0
2018-02-01T02:38:47.686Z,0
2018-02-01T02:39:48.203Z,0
2018-02-01T02:40:47.965Z,0
2018-02-01T02:41:48.232Z,0
2018-02-01T02:42:48.500Z,0
2018-02-01T02:43:48.531Z,0
2018-02-01T02:44:48.293Z,0
2018-02-01T02:45:48.048Z,0
2018-02-01T02:46:48.316Z,0
2018-02-01T02:47:48.085Z,0
2018-02-01T02:48:48.100Z,0
2018-02-01T02:49:47.862Z,0
2018-02-01T02:50:48.202Z,0
2018-02-01T02:51:48.406Z,0
2018-02-01T02:52:48.174Z,0
2018-02-01T02:53:47.937Z,0
2018-02-01T02:54:48.453Z,0
2018-02-01T02:55:48.748Z,0
2018-02-01T02:56:48.492Z,0
2018-02-01T02:57:48.252Z,0
2018-02-01T02:58:48.780Z,0
2018-02-01T02:59:48.288Z,0
2018-02-01T03:00:48.318Z,0
2018-02-01T03:01:48.572Z,0
2018-02-01T03:02:48.593Z,0
2018-02-01T03:03:48.359Z,0
2018-02-01T03:04:48.876Z,0
2018-02-01T03:05:48.439Z,0
2018-02-01T03:06:48.433Z,0
2018-02-01T03:07:48.669Z,0
2018-02-01T03:08:48.191Z,0
2018-02-01T03:09:48.955Z,0
2018-02-01T03:10:48.524Z,0
2018-02-01T03:11:48.989Z,0
2018-02-01T03:12:48.505Z,0
2018-02-01T03:13:48.776Z,0
2018-02-01T03:14:49.052Z,0
2018-02-01T03:15:48.312Z,0
2018-02-01T03:16:48.841Z,0
2018-02-01T03:17:48.587Z,0
2018-02-01T03:18:48.611Z,0
2018-02-01T03:19:48.622Z,0
2018-02-01T03:20:48.955Z,0
2018-02-01T03:21:48.403Z,0
2018-02-01T03:22:48.926Z,0
2018-02-01T03:23:48.685Z,0
2018-02-01T03:24:49.202Z,0
2018-02-01T03:25:49.279Z,0
2018-02-01T03:26:48.738Z,0
2018-02-01T03:27:48.758Z,0
2018-02-01T03:28:49.277Z,0
2018-02-01T03:29:49.037Z,0
2018-02-01T03:30:48.817Z,0
2018-02-01T03:31:49.078Z,0
2018-02-01T03:32:49.084Z,0
2018-02-01T03:33:49.106Z,0
2018-02-01T03:34:49.379Z,0
2018-02-01T03:35:48.884Z,0
2018-02-01T03:36:49.207Z,0
2018-02-01T03:37:48.917Z,0
2018-02-01T03:38:48.682Z,0
2018-02-01T03:39:48.698Z,0
2018-02-01T03:40:48.968Z,0
2018-02-01T03:41:48.953Z,0
2018-02-01T03:42:49.510Z,0
2018-02-01T03:43:49.018Z,0
2018-02-01T03:44:48.782Z,0
2018-02-01T03:45:49.298Z,0
2018-02-01T03:46:49.075Z,0
2018-02-01T03:47:49.082Z,0
2018-02-01T03:48:49.602Z,0
2018-02-01T03:49:49.365Z,0
2018-02-01T03:50:49.382Z,0
2018-02-01T03:51:49.197Z,0
2018-02-01T03:52:48.923Z,0
2018-02-01T03:53:49.441Z,0
2018-02-01T03:54:48.974Z,0
2018-02-01T03:55:49.222Z,0
2018-02-01T03:56:49.288Z,0
2018-02-01T03:57:49.512Z,0
2018-02-01T03:58:49.544Z,0
2018-02-01T03:59:49.301Z,0
2018-02-01T04:00:49.565Z,0
2018-02-01T04:01:49.340Z,0
2018-02-01T04:02:49.593Z,0
2018-02-01T04:03:48.847Z,0
2018-02-01T04:04:49.370Z,0
2018-02-01T04:05:49.639Z,0
2018-02-01T04:06:49.202Z,0
2018-02-01T04:07:48.912Z,0
2018-02-01T04:08:49.185Z,0
2018-02-01T04:09:49.698Z,0
2018-02-01T04:10:49.722Z,0
2018-02-01T04:11:49.491Z,0
2018-02-01T04:12:49.776Z,0
2018-02-01T04:13:49.766Z,0
2018-02-01T04:14:49.533Z,0
2018-02-01T04:15:49.574Z,0
2018-02-01T04:16:49.562Z,0
2018-02-01T04:17:49.584Z,0
2018-02-01T04:18:49.844Z,0
2018-02-01T04:19:49.610Z,0
2018-02-01T04:20:49.626Z,0
2018-02-01T04:21:49.690Z,0
2018-02-01T04:22:49.920Z,0
2018-02-01T04:23:49.928Z,0
2018-02-01T04:24:49.945Z,0
2018-02-01T04:25:49.713Z,0
2018-02-01T04:26:49.728Z,0
2018-02-01T04:27:49.742Z,0
2018-02-01T04:28:49.762Z,0
2018-02-01T04:29:50.031Z,0
2018-02-01T04:30:50.052Z,0
2018-02-01T04:31:49.808Z,0
2018-02-01T04:32:49.829Z,0
2018-02-01T04:33:50.088Z,0
2018-02-01T04:34:49.863Z,0
2018-02-01T04:35:49.620Z,0
2018-02-01T04:36:49.888Z,0
2018-02-01T04:37:49.957Z,0
2018-02-01T04:38:50.173Z,0
2018-02-01T04:39:50.188Z,0
2018-02-01T04:40:49.449Z,0
2018-02-01T04:41:50.219Z,0
2018-02-01T04:42:49.985Z,0
2018-02-01T04:43:49.494Z,0
2018-02-01T04:44:49.764Z,0
2018-02-01T04:45:50.039Z,0
2018-02-01T04:46:50.049Z,0
2018-02-01T04:47:50.368Z,0
2018-02-01T04:48:50.586Z,0
2018-02-01T04:49:50.150Z,0
2018-02-01T04:50:50.108Z,0
2018-02-01T04:51:49.869Z,0
2018-02-01T04:52:50.701Z,0
2018-02-01T04:53:49.920Z,0
2018-02-01T04:54:50.170Z,0
2018-02-01T04:55:49.935Z,0
2018-02-01T04:56:50.212Z,0
2018-02-01T04:57:50.231Z,0
2018-02-01T04:58:50.497Z,0
2018-02-01T04:59:50.770Z,0
2018-02-01T05:00:50.528Z,0
2018-02-01T05:01:50.535Z,0
2018-02-01T05:02:50.305Z,0
2018-02-01T05:03:50.316Z,0
2018-02-01T05:04:50.846Z,0
2018-02-01T05:05:50.099Z,0
2018-02-01T05:06:50.866Z,0
2018-02-01T05:07:50.682Z,0
2018-02-01T05:08:50.396Z,0
2018-02-01T05:09:50.413Z,0
2018-02-01T05:10:50.930Z,0
2018-02-01T05:11:50.950Z,0
2018-02-01T05:12:50.970Z,0
2018-02-01T05:13:50.480Z,0
2018-02-01T05:14:50.493Z,0
2018-02-01T05:15:50.510Z,0
2018-02-01T05:16:50.782Z,0
2018-02-01T05:17:51.055Z,0
2018-02-01T05:18:50.308Z,0
2018-02-01T05:19:51.083Z,0
2018-02-01T05:20:50.592Z,0
2018-02-01T05:21:51.106Z,0
2018-02-01T05:22:51.177Z,0
2018-02-01T05:23:50.639Z,0
2018-02-01T05:24:50.657Z,0
2018-02-01T05:25:50.924Z,0
2018-02-01T05:26:50.684Z,0
2018-02-01T05:27:50.448Z,0
2018-02-01T05:28:50.732Z,0
2018-02-01T05:29:51.288Z,0
2018-02-01T05:30:51.010Z,0
2018-02-01T05:31:50.519Z,0
2018-02-01T05:32:50.778Z,0
2018-02-01T05:33:51.053Z,0
2018-02-01T05:34:51.066Z,0
2018-02-01T05:35:50.912Z,0
2018-02-01T05:36:51.096Z,0
2018-02-01T05:37:51.420Z,0
2018-02-01T05:38:50.881Z,0
2018-02-01T05:39:51.399Z,0
2018-02-01T05:40:50.657Z,0
2018-02-01T05:41:50.673Z,0
2018-02-01T05:42:51.456Z,0
2018-02-01T05:43:50.962Z,0
2018-02-01T05:44:51.016Z,0
2018-02-01T05:45:50.987Z,0
2018-02-01T05:46:50.499Z,0
2018-02-01T05:47:51.333Z,0
2018-02-01T05:48:51.298Z,0
2018-02-01T05:49:51.299Z,0
2018-02-01T05:50:50.566Z,0
2018-02-01T05:51:51.078Z,0
2018-02-01T05:52:51.398Z,0
2018-02-01T05:53:51.611Z,0
2018-02-01T05:54:51.123Z,0
2018-02-01T05:55:51.138Z,0
2018-02-01T05:56:51.654Z,0
2018-02-01T05:57:51.170Z,0
2018-02-01T05:58:51.435Z,0
2018-02-01T05:59:51.456Z,0
2018-02-01T06:00:50.969Z,0
2018-02-01T06:01:51.498Z,0
2018-02-01T06:02:51.250Z,0
2018-02-01T06:03:51.516Z,0
2018-02-01T06:04:51.530Z,0
2018-02-01T06:05:51.291Z,0
2018-02-01T06:06:51.315Z,0
2018-02-01T06:07:51.475Z,0
2018-02-01T06:08:51.083Z,0
2018-02-01T06:09:51.358Z,0
2018-02-01T06:10:51.648Z,0
2018-02-01T06:11:51.380Z,0
2018-02-01T06:12:51.699Z,0
2018-02-01T06:13:51.416Z,0
2018-02-01T06:14:51.691Z,0
2018-02-01T06:15:51.192Z,0
2018-02-01T06:16:51.718Z,0
2018-02-01T06:17:51.986Z,0
2018-02-01T06:18:51.489Z,0
2018-02-01T06:19:51.251Z,0
2018-02-01T06:20:51.773Z,0
2018-02-01T06:21:51.284Z,0
2018-02-01T06:22:51.353Z,0
2018-02-01T06:23:51.812Z,0
2018-02-01T06:24:51.829Z,0
2018-02-01T06:25:51.653Z,0
2018-02-01T06:26:52.183Z,0
2018-02-01T06:27:51.875Z,0
2018-02-01T06:28:51.636Z,0
2018-02-01T06:29:51.656Z,0
2018-02-01T06:30:52.177Z,0
2018-02-01T06:31:51.689Z,0
2018-02-01T06:32:52.204Z,0
2018-02-01T06:33:51.461Z,0
2018-02-01T06:34:51.998Z,0
2018-02-01T06:35:51.995Z,0
2018-02-01T06:36:52.012Z,0
2018-02-01T06:37:52.028Z,0
2018-02-01T06:38:51.535Z,0
2018-02-01T06:39:52.217Z,0
2018-02-01T06:40:51.818Z,0
2018-02-01T06:41:51.835Z,0
2018-02-01T06:42:52.100Z,0
2018-02-01T06:43:52.372Z,0
2018-02-01T06:44:51.877Z,0
2018-02-01T06:45:51.885Z,0
2018-02-01T06:46:52.407Z,0
2018-02-01T06:47:52.178Z,0
2018-02-01T06:48:52.439Z,0
2018-02-01T06:49:52.207Z,0
2018-02-01T06:50:51.970Z,0
2018-02-01T06:51:51.988Z,0
2018-02-01T06:52:51.990Z,0
2018-02-01T06:53:52.258Z,0
2018-02-01T06:54:51.819Z,0
2018-02-01T06:55:52.044Z,0
2018-02-01T06:56:52.050Z,0
2018-02-01T06:57:52.315Z,0
2018-02-01T06:58:52.333Z,0
2018-02-01T06:59:51.846Z,0
2018-02-01T07:00:52.363Z,5
2018-02-01T07:01:52.130Z,5
2018-02-01T07:02:52.149Z,5
2018-02-01T07:03:52.663Z,5
2018-02-01T07:04:51.919Z,5
2018-02-01T07:05:52.442Z,5
2018-02-01T07:06:52.457Z,5
2018-02-01T07:07:52.230Z,5
2018-02-01T07:08:52.234Z,5
2018-02-01T07:09:52.046Z,5
2018-02-01T07:10:52.264Z,5
2018-02-01T07:11:52.829Z,5
2018-02-01T07:12:52.297Z,5
2018-02-01T07:13:52.316Z,5
2018-02-01T07:14:52.676Z,5
2018-02-01T07:15:52.598Z,5
2018-02-01T07:16:52.356Z,5
2018-02-01T07:17:52.367Z,5
2018-02-01T07:18:52.380Z,5
2018-02-01T07:19:52.693Z,5
2018-02-01T07:20:52.917Z,5
2018-02-01T07:21:52.428Z,5
2018-02-01T07:22:52.190Z,5
2018-02-01T07:23:52.710Z,5
2018-02-01T07:24:52.267Z,5
2018-02-01T07:25:52.736Z,5
2018-02-01T07:26:52.501Z,5
2018-02-01T07:27:53.019Z,10
2018-02-01T07:28:52.531Z,5
2018-02-01T07:29:52.797Z,10
2018-02-01T07:30:53.080Z,10
2018-02-01T07:31:52.331Z,10
2018-02-01T07:32:52.588Z,10
2018-02-01T07:33:52.855Z,10
2018-02-01T07:34:52.369Z,10
2018-02-01T07:35:52.380Z,10
2018-02-01T07:36:52.655Z,10
2018-02-01T07:37:53.167Z,10
2018-02-01T07:38:52.678Z,10
2018-02-01T07:39:52.445Z,10
2018-02-01T07:40:52.764Z,10
2018-02-01T07:41:52.469Z,5
2018-02-01T07:42:52.484Z,10
2018-02-01T07:43:53.011Z,10
2018-02-01T07:44:52.513Z,10
2018-02-01T07:45:53.137Z,10
2018-02-01T07:46:52.541Z,10
2018-02-01T07:47:53.061Z,10
2018-02-01T07:48:52.820Z,10
2018-02-01T07:49:53.340Z,15
2018-02-01T07:50:53.100Z,15
2018-02-01T07:51:52.867Z,15
2018-02-01T07:52:52.378Z,20
2018-02-01T07:53:53.397Z,20
2018-02-01T07:54:52.909Z,20
2018-02-01T07:55:52.734Z,20
2018-02-01T07:56:52.688Z,20
2018-02-01T07:57:52.705Z,25
2018-02-01T07:58:53.227Z,25
2018-02-01T07:59:53.250Z,25
2018-02-01T08:00:53.254Z,30
2018-02-01T08:01:52.506Z,30
2018-02-01T08:02:53.274Z,35
2018-02-01T08:03:52.783Z,40
2018-02-01T08:04:53.301Z,45
2018-02-01T08:05:53.119Z,50
2018-02-01T08:06:53.333Z,55
2018-02-01T08:07:53.349Z,60
2018-02-01T08:08:53.108Z,60
2018-02-01T08:09:53.377Z,60
2018-02-01T08:10:53.443Z,55
2018-02-01T08:11:53.172Z,55
2018-02-01T08:12:53.181Z,55
2018-02-01T08:13:53.690Z,55
2018-02-01T08:14:52.706Z,55
2018-02-01T08:15:53.280Z,55
2018-02-01T08:16:53.531Z,60
2018-02-01T08:17:52.993Z,65
2018-02-01T08:18:53.005Z,65
2018-02-01T08:19:53.777Z,65
2018-02-01T08:20:53.796Z,65
2018-02-01T08:21:53.302Z,60
2018-02-01T08:22:53.574Z,55
2018-02-01T08:23:53.598Z,50
2018-02-01T08:24:53.597Z,45
2018-02-01T08:25:53.158Z,45
2018-02-01T08:26:53.120Z,45
2018-02-01T08:27:53.646Z,50
2018-02-01T08:28:53.666Z,50
2018-02-01T08:29:53.165Z,45
2018-02-01T08:30:53.736Z,45
2018-02-01T08:31:53.216Z,50
2018-02-01T08:32:53.714Z,50
2018-02-01T08:33:53.497Z,50
2018-02-01T08:34:53.764Z,50
2018-02-01T08:35:53.649Z,55
2018-02-01T08:36:53.532Z,55
2018-02-01T08:37:54.096Z,55
2018-02-01T08:38:53.798Z,55
2018-02-01T08:39:53.821Z,55
2018-02-01T08:40:53.881Z,60
2018-02-01T08:41:53.348Z,60
2018-02-01T08:42:53.867Z,65
2018-02-01T08:43:54.124Z,65
2018-02-01T08:44:53.386Z,70
2018-02-01T08:45:53.698Z,75
2018-02-01T08:46:53.165Z,70
2018-02-01T08:47:53.690Z,75
2018-02-01T08:48:53.712Z,75
2018-02-01T08:49:54.219Z,75
2018-02-01T08:50:53.975Z,75
2018-02-01T08:51:53.491Z,75
2018-02-01T08:52:54.020Z,70
2018-02-01T08:53:53.769Z,65
2018-02-01T08:54:53.531Z,65
2018-02-01T08:55:54.361Z,65
2018-02-01T08:56:53.837Z,60
2018-02-01T08:57:53.834Z,60
2018-02-01T08:58:53.840Z,60
2018-02-01T08:59:54.103Z,60
2018-02-01T09:00:53.362Z,60
2018-02-01T09:01:53.626Z,60
2018-02-01T09:02:54.403Z,65
2018-02-01T09:03:53.667Z,60
2018-02-01T09:04:54.196Z,60
2018-02-01T09:05:54.189Z,60
2018-02-01T09:06:54.460Z,55
2018-02-01T09:07:53.462Z,55
2018-02-01T09:08:53.986Z,55
2018-02-01T09:09:54.256Z,55
2018-02-01T09:10:54.064Z,60
2018-02-01T09:11:54.278Z,55
2018-02-01T09:12:54.289Z,55
2018-02-01T09:13:54.567Z,55
2018-02-01T09:14:54.569Z,55
2018-02-01T09:15:54.585Z,60
2018-02-01T09:16:53.848Z,60
2018-02-01T09:17:54.129Z,60
2018-02-01T09:18:54.379Z,60
2018-02-01T09:19:54.736Z,60
2018-02-01T09:20:54.407Z,55
2018-02-01T09:21:54.218Z,60
2018-02-01T09:22:53.930Z,60
2018-02-01T09:23:54.194Z,55
2018-02-01T09:24:54.713Z,60
2018-02-01T09:25:54.219Z,55
2018-02-01T09:26:55.039Z,50
2018-02-01T09:27:54.261Z,55
2018-02-01T09:28:54.012Z,60
2018-02-01T09:29:54.792Z,60
2018-02-01T09:30:54.292Z,60
2018-02-01T09:31:54.335Z,55
2018-02-01T09:32:54.322Z,55
2018-02-01T09:33:54.589Z,55
2018-02-01T09:34:54.099Z,55
2018-02-01T09:35:53.870Z,55
2018-02-01T09:36:54.620Z,55
2018-02-01T09:37:54.388Z,55
2018-02-01T09:38:54.673Z,55
2018-02-01T09:39:54.915Z,55
2018-02-01T09:40:54.675Z,55
2018-02-01T09:41:54.494Z,55
2018-02-01T09:42:54.731Z,55
2018-02-01T09:43:54.727Z,55
2018-02-01T09:44:54.452Z,55
2018-02-01T09:45:54.752Z,55
2018-02-01T09:46:54.757Z,55
2018-02-01T09:47:54.768Z,60
2018-02-01T09:48:54.781Z,60
2018-02-01T09:49:54.546Z,60
2018-02-01T09:50:54.569Z,55
2018-02-01T09:51:54.580Z,55
2018-02-01T09:52:55.093Z,55
2018-02-01T09:53:54.612Z,50
2018-02-01T09:54:55.124Z,55
2018-02-01T09:55:55.132Z,55
2018-02-01T09:56:54.696Z,50
2018-02-01T09:57:54.659Z,50
2018-02-01T09:58:54.420Z,50
2018-02-01T09:59:54.435Z,50
2018-02-01T10:00:54.969Z,50
2018-02-01T10:01:55.238Z,50
2018-02-01T10:02:54.479Z,55
2018-02-01T10:03:54.997Z,55
2018-02-01T10:04:55.065Z,55
2018-02-01T10:05:55.274Z,50
2018-02-01T10:06:54.783Z,50
2018-02-01T10:07:54.799Z,50
2018-02-01T10:08:55.065Z,50
2018-02-01T10:09:55.078Z,50
2018-02-01T10:10:54.843Z,50
2018-02-01T10:11:54.607Z,50
2018-02-01T10:12:55.118Z,50
2018-02-01T10:13:54.877Z,50
2018-02-01T10:14:55.193Z,55
2018-02-01T10:15:54.910Z,55
2018-02-01T10:16:55.171Z,60
2018-02-01T10:17:54.932Z,60
2018-02-01T10:18:54.969Z,55
2018-02-01T10:19:55.213Z,55
2018-02-01T10:20:54.724Z,55
2018-02-01T10:21:54.731Z,55
2018-02-01T10:22:54.997Z,50
2018-02-01T10:23:55.270Z,45
2018-02-01T10:24:55.278Z,50
2018-02-01T10:25:55.288Z,40
2018-02-01T10:26:55.353Z,35
2018-02-01T10:27:55.568Z,30
2018-02-01T10:28:55.075Z,25
2018-02-01T10:29:55.392Z,20
2018-02-01T10:30:55.358Z,20
2018-02-01T10:31:55.623Z,20
2018-02-01T10:32:55.139Z,20
2018-02-01T10:33:55.164Z,25
2018-02-01T10:34:54.972Z,25
2018-02-01T10:35:55.766Z,25
2018-02-01T10:36:54.938Z,25
2018-02-01T10:37:54.961Z,25
2018-02-01T10:38:55.223Z,25
2018-02-01T10:39:55.537Z,30
2018-02-01T10:40:55.244Z,30
2018-02-01T10:41:55.259Z,35
2018-02-01T10:42:55.269Z,40
2018-02-01T10:43:55.289Z,40
2018-02-01T10:44:55.852Z,45
2018-02-01T10:45:55.076Z,50
2018-02-01T10:46:55.074Z,55
2018-02-01T10:47:55.851Z,55
2018-02-01T10:48:55.605Z,50
2018-02-01T10:49:55.140Z,50
2018-02-01T10:50:55.884Z,45
2018-02-01T10:51:55.647Z,45
2018-02-01T10:52:55.403Z,50
2018-02-01T10:53:55.459Z,55
2018-02-01T10:54:55.431Z,55
2018-02-01T10:55:55.193Z,55
2018-02-01T10:56:55.965Z,55
2018-02-01T10:57:55.978Z,55
2018-02-01T10:58:55.511Z,50
2018-02-01T10:59:55.608Z,50
2018-02-01T11:00:55.513Z,45
2018-02-01T11:01:55.535Z,45
2018-02-01T11:02:55.799Z,45
2018-02-01T11:03:56.065Z,45
2018-02-01T11:04:55.831Z,45
2018-02-01T11:05:55.594Z,50
2018-02-01T11:06:55.853Z,45
2018-02-01T11:07:55.614Z,45
2018-02-01T11:08:55.376Z,50
2018-02-01T11:09:55.396Z,50
2018-02-01T11:10:55.155Z,45
2018-02-01T11:11:55.421Z,50
2018-02-01T11:12:55.682Z,50
2018-02-01T11:13:56.000Z,45
2018-02-01T11:14:55.512Z,45
2018-02-01T11:15:55.987Z,45
2018-02-01T11:16:55.999Z,45
2018-02-01T11:17:55.754Z,45
2018-02-01T11:18:56.023Z,45
2018-02-01T11:19:55.885Z,50
2018-02-01T11:20:55.795Z,50
2018-02-01T11:21:55.812Z,50
2018-02-01T11:22:55.827Z,50
2018-02-01T11:23:55.844Z,50
2018-02-01T11:24:55.856Z,50
2018-02-01T11:25:55.727Z,50
2018-02-01T11:26:55.884Z,50
2018-02-01T11:27:56.161Z,50
2018-02-01T11:28:55.913Z,50
2018-02-01T11:29:55.724Z,50
2018-02-01T11:30:56.188Z,50
2018-02-01T11:31:56.206Z,55
2018-02-01T11:32:55.713Z,55
2018-02-01T11:33:56.275Z,60
2018-02-01T11:34:56.246Z,55
2018-02-01T11:35:56.004Z,55
2018-02-01T11:36:56.271Z,55
2018-02-01T11:37:56.286Z,55
2018-02-01T11:38:55.800Z,55
2018-02-01T11:39:56.065Z,60
2018-02-01T11:40:56.601Z,60
2018-02-01T11:41:56.343Z,60
2018-02-01T11:42:56.370Z,60
2018-02-01T11:43:55.878Z,60
2018-02-01T11:44:56.671Z,60
2018-02-01T11:45:56.154Z,55
2018-02-01T11:46:56.209Z,60
2018-02-01T11:47:55.927Z,60
2018-02-01T11:48:56.443Z,65
2018-02-01T11:49:56.461Z,65
2018-02-01T11:50:56.469Z,60
2018-02-01T11:51:56.230Z,60
2018-02-01T11:52:55.741Z,60
2018-02-01T11:53:56.261Z,60
2018-02-01T11:54:56.014Z,60
2018-02-01T11:55:56.779Z,60
2018-02-01T11:56:56.039Z,60
2018-02-01T11:57:56.557Z,60
2018-02-01T11:58:56.314Z,65
2018-02-01T11:59:56.589Z,70
2018-02-01T12:00:56.342Z,70
2018-02-01T12:01:56.358Z,65
2018-02-01T12:02:56.672Z,65
2018-02-01T12:03:56.382Z,60
2018-02-01T12:04:56.912Z,60
2018-02-01T12:05:56.422Z,60
2018-02-01T12:06:56.178Z,55
2018-02-01T12:07:56.451Z,55
2018-02-01T12:08:56.856Z,50
2018-02-01T12:09:56.754Z,50
2018-02-01T12:10:56.498Z,55
2018-02-01T12:11:56.530Z,55
2018-02-01T12:12:56.521Z,55
2018-02-01T12:13:56.790Z,60
2018-02-01T12:14:56.556Z,55
2018-02-01T12:15:56.815Z,50
2018-02-01T12:16:56.573Z,55
2018-02-01T12:17:56.788Z,60
2018-02-01T12:18:56.613Z,70
2018-02-01T12:19:56.869Z,75
2018-02-01T12:20:56.381Z,85
2018-02-01T12:21:56.901Z,90
2018-02-01T12:22:57.106Z,95
2018-02-01T12:23:56.673Z,90
2018-02-01T12:24:56.685Z,90
2018-02-01T12:25:56.950Z,90
2018-02-01T12:26:56.712Z,90
2018-02-01T12:27:56.755Z,90
2018-02-01T12:28:57.026Z,90
2018-02-01T12:29:56.512Z,85
2018-02-01T12:30:56.524Z,80
2018-02-01T12:31:56.538Z,75
2018-02-01T12:32:57.360Z,75
2018-02-01T12:33:57.080Z,70
2018-02-01T12:34:56.833Z,70
2018-02-01T12:35:56.848Z,65
2018-02-01T12:36:57.111Z,65
2018-02-01T12:37:56.864Z,65
2018-02-01T12:38:57.485Z,65
2018-02-01T12:39:57.151Z,65
2018-02-01T12:40:56.661Z,65
2018-02-01T12:41:57.177Z,65
2018-02-01T12:42:57.196Z,70
2018-02-01T12:43:57.200Z,70
2018-02-01T12:44:56.714Z,70
2018-02-01T12:45:57.480Z,65
2018-02-01T12:46:57.244Z,65
2018-02-01T12:47:56.821Z,60
2018-02-01T12:48:57.522Z,65
2018-02-01T12:49:57.291Z,65
2018-02-01T12:50:57.299Z,65
2018-02-01T12:51:57.313Z,65
2018-02-01T12:52:57.588Z,70
2018-02-01T12:53:57.339Z,70
2018-02-01T12:54:57.104Z,70
2018-02-01T12:55:57.388Z,75
2018-02-01T12:56:57.129Z,70
2018-02-01T12:57:57.140Z,65
2018-02-01T12:58:56.651Z,65
2018-02-01T12:59:57.174Z,65
2018-02-01T13:00:57.439Z,65
2018-02-01T13:01:57.466Z,65
2018-02-01T13:02:57.761Z,60
2018-02-01T13:03:57.510Z,65
2018-02-01T13:04:56.986Z,65
2018-02-01T13:05:57.250Z,70
2018-02-01T13:06:57.514Z,65
2018-02-01T13:07:57.325Z,65
2018-02-01T13:08:57.542Z,70
2018-02-01T13:09:57.302Z,75
2018-02-01T13:10:57.067Z,85
2018-02-01T13:11:57.586Z,95
2018-02-01T13:12:57.852Z,100
2018-02-01T13:13:57.360Z,105
2018-02-01T13:14:57.371Z,110
2018-02-01T13:15:57.531Z,110
2018-02-01T13:16:57.650Z,110
2018-02-01T13:17:57.724Z,105
2018-02-01T13:18:57.173Z,95
2018-02-01T13:19:57.686Z,85
2018-02-01T13:20:56.948Z,80
2018-02-01T13:21:57.463Z,70
2018-02-01T13:22:57.726Z,55
2018-02-01T13:23:57.756Z,50
2018-02-01T13:24:57.501Z,50
2018-02-01T13:25:57.786Z,50
2018-02-01T13:26:57.281Z,55
2018-02-01T13:27:57.555Z,55
2018-02-01T13:28:57.569Z,55
2018-02-01T13:29:58.074Z,50
2018-02-01T13:30:57.835Z,50
2018-02-01T13:31:57.844Z,50
2018-02-01T13:32:57.658Z,50
2018-02-01T13:33:57.871Z,50
2018-02-01T13:34:57.384Z,50
2018-02-01T13:35:58.154Z,55
2018-02-01T13:36:57.409Z,50
2018-02-01T13:37:57.771Z,50
2018-02-01T13:38:57.688Z,55
2018-02-01T13:39:57.704Z,55
2018-02-01T13:40:57.214Z,55
2018-02-01T13:41:58.236Z,65
2018-02-01T13:42:57.743Z,70
2018-02-01T13:43:57.505Z,65
2018-02-01T13:44:57.767Z,60
2018-02-01T13:45:57.782Z,55
2018-02-01T13:46:58.301Z,50
2018-02-01T13:47:58.110Z,45
2018-02-01T13:48:57.575Z,40
2018-02-01T13:49:57.845Z,35
2018-02-01T13:50:57.605Z,35
2018-02-01T13:51:57.866Z,40
2018-02-01T13:52:57.880Z,45
2018-02-01T13:53:57.648Z,45
2018-02-01T13:54:58.157Z,45
2018-02-01T13:55:58.176Z,45
2018-02-01T13:56:57.937Z,40
2018-02-01T13:57:58.220Z,35
2018-02-01T13:58:57.971Z,30
2018-02-01T13:59:58.231Z,35
2018-02-01T14:00:58.240Z,40
2018-02-01T14:01:58.257Z,35
2018-02-01T14:02:58.279Z,35
2018-02-01T14:03:58.286Z,30
2018-02-01T14:04:58.097Z,25
2018-02-01T14:05:57.810Z,25
2018-02-01T14:06:58.584Z,25
2018-02-01T14:07:58.376Z,25
2018-02-01T14:08:58.604Z,35
2018-02-01T14:09:58.411Z,45
2018-02-01T14:10:58.122Z,50
2018-02-01T14:11:57.909Z,45
2018-02-01T14:12:58.159Z,40
2018-02-01T14:13:58.165Z,40
2018-02-01T14:14:58.427Z,40
2018-02-01T14:15:58.446Z,40
2018-02-01T14:16:58.203Z,45
2018-02-01T14:17:58.216Z,50
2018-02-01T14:18:58.227Z,60
2018-02-01T14:19:58.588Z,65
2018-02-01T14:20:58.507Z,60
2018-02-01T14:21:58.785Z,60
2018-02-01T14:22:58.844Z,50
2018-02-01T14:23:58.551Z,45
2018-02-01T14:40:30.730Z,45
2018-02-01T14:41:30.738Z,45
2018-02-01T14:42:30.484Z,40
2018-02-01T14:43:30.006Z,40
2018-02-01T14:44:30.756Z,35
2018-02-01T14:45:31.034Z,35
2018-02-01T14:46:30.530Z,35
2018-02-01T14:47:31.043Z,35